createdAt,value
2019-01-30T00:00:16.430Z,22.80
2019-01-30T00:01:16.428Z,22.00
2019-01-30T00:02:16.418Z,18.20
2019-01-30T00:03:16.402Z,20.30
2019-01-30T00:04:16.406Z,24.70
2019-01-30T00:05:16.383Z,22.90
2019-01-30T00:06:16.375Z,22.10
2019-01-30T00:07:16.361Z,21.30
2019-01-30T00:08:16.364Z,22.00
2019-01-30T00:09:16.343Z,24.50
2019-01-30T00:10:16.325Z,23.80
2019-01-30T00:11:16.318Z,22.10
2019-01-30T00:12:16.315Z,21.80
2019-01-30T00:13:16.299Z,18.10
2019-01-30T00:14:16.282Z,22.10
2019-01-30T00:15:16.274Z,20.90
2019-01-30T00:16:16.260Z,23.10
2019-01-30T00:17:16.255Z,24.20
2019-01-30T00:18:16.243Z,24.10
2019-01-30T00:19:16.236Z,21.30
2019-01-30T00:20:16.222Z,19.40
2019-01-30T00:21:16.216Z,24.50
2019-01-30T00:22:16.197Z,24.80
2019-01-30T00:23:16.190Z,23.20
2019-01-30T00:24:16.179Z,21.80
2019-01-30T00:25:16.178Z,27.70
2019-01-30T00:26:16.172Z,23.00
2019-01-30T00:27:16.144Z,25.90
2019-01-30T00:28:16.138Z,25.60
2019-01-30T00:29:16.127Z,23.20
2019-01-30T00:30:16.116Z,21.60
2019-01-30T00:31:16.111Z,22.30
2019-01-30T00:32:16.100Z,21.40
2019-01-30T00:33:16.081Z,25.20
2019-01-30T00:34:16.068Z,25.50
2019-01-30T00:35:16.067Z,21.80
2019-01-30T00:36:16.063Z,25.20
2019-01-30T00:37:16.065Z,22.60
2019-01-30T00:38:16.030Z,22.70
2019-01-30T00:39:16.018Z,23.20
2019-01-30T00:40:16.114Z,22.60
2019-01-30T00:41:16.005Z,25.30
2019-01-30T00:42:15.999Z,21.20
2019-01-30T00:43:15.975Z,21.70
2019-01-30T00:44:16.047Z,23.50
2019-01-30T00:45:15.955Z,22.10
2019-01-30T00:46:15.945Z,22.30
2019-01-30T00:47:16.221Z,24.00
2019-01-30T00:48:15.942Z,22.40
2019-01-30T00:49:15.937Z,23.60
2019-01-30T00:50:15.904Z,23.40
2019-01-30T00:51:15.889Z,26.40
2019-01-30T00:52:15.887Z,26.40
2019-01-30T00:53:15.879Z,25.70
2019-01-30T00:54:15.884Z,25.80
2019-01-30T00:55:15.848Z,26.00
2019-01-30T00:56:15.846Z,22.90
2019-01-30T00:57:15.831Z,30.90
2019-01-30T00:58:15.814Z,26.30
2019-01-30T00:59:15.817Z,22.70
2019-01-30T01:00:15.819Z,26.90
2019-01-30T01:01:15.788Z,29.20
2019-01-30T01:02:15.774Z,30.70
2019-01-30T01:03:15.772Z,28.50
2019-01-30T01:04:15.770Z,27.80
2019-01-30T01:05:15.758Z,30.60
2019-01-30T01:06:15.730Z,30.40
2019-01-30T01:07:15.733Z,29.20
2019-01-30T01:08:15.708Z,30.70
2019-01-30T01:09:15.704Z,32.30
2019-01-30T01:10:15.692Z,30.40
2019-01-30T01:11:15.697Z,32.50
2019-01-30T01:12:15.670Z,28.00
2019-01-30T01:13:15.665Z,29.10
2019-01-30T01:14:15.644Z,32.00
2019-01-30T01:15:15.650Z,28.50
2019-01-30T01:16:15.628Z,30.50
2019-01-30T01:17:15.631Z,35.30
2019-01-30T01:18:15.605Z,30.00
2019-01-30T01:19:15.600Z,30.00
2019-01-30T01:20:15.583Z,31.90
2019-01-30T01:21:15.575Z,32.10
2019-01-30T01:22:15.567Z,30.50
2019-01-30T01:23:15.563Z,34.10
2019-01-30T01:24:15.538Z,31.00
2019-01-30T01:25:15.535Z,29.20
2019-01-30T01:26:15.617Z,33.70
2019-01-30T01:27:15.513Z,30.70
2019-01-30T01:28:15.497Z,33.30
2019-01-30T01:29:15.499Z,30.10
2019-01-30T01:30:24.509Z,30.20
2019-01-30T01:31:16.467Z,30.20
2019-01-30T01:32:15.452Z,30.80
2019-01-30T01:33:15.444Z,31.50
2019-01-30T01:34:15.446Z,28.30
2019-01-30T01:35:15.423Z,32.40
2019-01-30T01:36:15.410Z,28.50
2019-01-30T01:37:15.403Z,29.40
2019-01-30T01:38:15.394Z,27.30
2019-01-30T01:39:15.378Z,26.80
2019-01-30T01:40:15.372Z,33.40
2019-01-30T01:41:15.358Z,28.40
2019-01-30T01:42:15.348Z,30.10
2019-01-30T01:43:15.345Z,29.40
2019-01-30T01:44:15.458Z,30.80
2019-01-30T01:45:15.323Z,27.00
2019-01-30T01:46:15.301Z,29.00
2019-01-30T01:47:15.297Z,30.30
2019-01-30T01:48:15.284Z,30.10
2019-01-30T01:49:15.285Z,29.90
2019-01-30T01:50:15.258Z,30.40
2019-01-30T01:51:15.248Z,30.20
2019-01-30T01:52:15.238Z,28.50
2019-01-30T01:53:15.233Z,28.40
2019-01-30T01:54:15.222Z,27.90
2019-01-30T01:55:15.220Z,31.40
2019-01-30T01:56:15.205Z,33.50
2019-01-30T01:57:15.193Z,29.30
2019-01-30T01:58:15.173Z,31.30
2019-01-30T01:59:15.186Z,29.40
2019-01-30T02:00:15.154Z,30.30
2019-01-30T02:01:15.158Z,32.00
2019-01-30T02:02:15.141Z,31.50
2019-01-30T02:03:15.122Z,32.10
2019-01-30T02:04:15.110Z,31.60
2019-01-30T02:05:15.107Z,29.50
2019-01-30T02:06:15.091Z,28.00
2019-01-30T02:07:15.079Z,36.30
2019-01-30T02:08:15.069Z,30.40
2019-01-30T02:09:15.067Z,32.90
2019-01-30T02:10:15.048Z,31.80
2019-01-30T02:11:15.036Z,32.10
2019-01-30T02:12:15.029Z,34.30
2019-01-30T02:13:15.016Z,30.80
2019-01-30T02:14:15.010Z,32.30
2019-01-30T02:15:14.994Z,32.40
2019-01-30T02:16:14.986Z,31.70
2019-01-30T02:17:15.083Z,32.80
2019-01-30T02:18:14.968Z,29.20
2019-01-30T02:19:14.954Z,31.60
2019-01-30T02:20:14.951Z,33.40
2019-01-30T02:21:14.937Z,31.90
2019-01-30T02:22:14.923Z,30.00
2019-01-30T02:23:14.910Z,29.90
2019-01-30T02:24:14.906Z,29.90
2019-01-30T02:25:14.891Z,32.00
2019-01-30T02:26:14.884Z,28.50
2019-01-30T02:27:14.896Z,29.20
2019-01-30T02:28:14.862Z,29.60
2019-01-30T02:29:14.845Z,28.70
2019-01-30T02:30:14.854Z,31.00
2019-01-30T02:31:14.831Z,27.40
2019-01-30T02:32:14.824Z,31.80
2019-01-30T02:33:14.804Z,29.70
2019-01-30T02:34:14.794Z,31.50
2019-01-30T02:35:14.784Z,31.40
2019-01-30T02:36:14.774Z,31.10
2019-01-30T02:37:14.762Z,31.80
2019-01-30T02:38:14.750Z,31.30
2019-01-30T02:39:14.741Z,32.30
2019-01-30T02:40:14.737Z,28.20
2019-01-30T02:41:14.722Z,28.70
2019-01-30T02:42:14.711Z,31.70
2019-01-30T02:43:14.705Z,32.80
2019-01-30T02:44:14.690Z,29.10
2019-01-30T02:45:14.677Z,29.70
2019-01-30T02:46:14.671Z,29.70
2019-01-30T02:47:14.661Z,32.00
2019-01-30T02:48:14.650Z,30.80
2019-01-30T02:49:14.640Z,31.70
2019-01-30T02:50:14.624Z,30.70
2019-01-30T02:51:14.615Z,30.40
2019-01-30T02:52:14.611Z,29.30
2019-01-30T02:53:14.616Z,28.90
2019-01-30T02:54:14.585Z,27.30
2019-01-30T02:55:14.579Z,30.80
2019-01-30T02:56:14.562Z,25.40
2019-01-30T02:57:14.553Z,27.90
2019-01-30T02:58:14.549Z,28.00
2019-01-30T02:59:14.531Z,27.60
2019-01-30T03:00:14.526Z,27.80
2019-01-30T03:01:14.508Z,29.10
2019-01-30T03:02:14.498Z,25.10
2019-01-30T03:03:14.488Z,27.80
2019-01-30T03:04:14.479Z,28.00
2019-01-30T03:05:14.468Z,27.70
2019-01-30T03:06:14.463Z,27.40
2019-01-30T03:07:14.446Z,28.30
2019-01-30T03:08:14.436Z,27.90
2019-01-30T03:09:14.424Z,27.40
2019-01-30T03:10:14.417Z,28.30
2019-01-30T03:11:14.404Z,26.70
2019-01-30T03:12:14.408Z,27.80
2019-01-30T03:13:14.383Z,28.50
2019-01-30T03:14:14.372Z,26.10
2019-01-30T03:15:14.362Z,23.70
2019-01-30T03:16:14.356Z,26.60
2019-01-30T03:17:14.349Z,30.20
2019-01-30T03:18:14.350Z,27.50
2019-01-30T03:19:14.318Z,27.20
2019-01-30T03:20:14.308Z,27.00
2019-01-30T03:21:14.297Z,30.70
2019-01-30T03:22:14.300Z,26.30
2019-01-30T03:23:14.285Z,30.50
2019-01-30T03:24:14.291Z,26.70
2019-01-30T03:25:14.254Z,24.70
2019-01-30T03:26:14.247Z,26.90
2019-01-30T03:27:14.235Z,23.80
2019-01-30T03:28:14.247Z,24.90
2019-01-30T03:29:14.218Z,25.50
2019-01-30T03:30:14.222Z,26.80
2019-01-30T03:31:17.845Z,24.10
2019-01-30T03:32:14.186Z,26.20
2019-01-30T03:33:14.173Z,25.60
2019-01-30T03:34:14.164Z,28.20
2019-01-30T03:35:14.182Z,26.20
2019-01-30T03:36:14.139Z,25.90
2019-01-30T03:37:14.128Z,24.90
2019-01-30T03:38:14.119Z,23.70
2019-01-30T03:39:14.109Z,25.00
2019-01-30T03:40:14.103Z,24.90
2019-01-30T03:41:14.097Z,26.20
2019-01-30T03:42:14.076Z,26.50
2019-01-30T03:43:14.065Z,22.10
2019-01-30T03:44:14.057Z,25.20
2019-01-30T03:45:14.065Z,25.30
2019-01-30T03:46:14.046Z,26.10
2019-01-30T03:47:14.051Z,31.10
2019-01-30T03:48:14.013Z,29.60
2019-01-30T03:49:14.001Z,28.80
2019-01-30T03:50:13.991Z,26.40
2019-01-30T03:51:14.006Z,26.80
2019-01-30T03:52:13.971Z,24.40
2019-01-30T03:53:13.958Z,23.90
2019-01-30T03:54:13.951Z,26.60
2019-01-30T03:55:13.937Z,26.00
2019-01-30T03:56:13.926Z,23.10
2019-01-30T03:57:13.927Z,25.10
2019-01-30T03:58:13.919Z,25.10
2019-01-30T03:59:13.897Z,23.80
2019-01-30T04:00:13.884Z,24.90
2019-01-30T04:01:13.874Z,26.30
2019-01-30T04:02:13.873Z,25.40
2019-01-30T04:03:13.862Z,23.60
2019-01-30T04:04:13.857Z,24.00
2019-01-30T04:05:13.831Z,25.50
2019-01-30T04:06:13.821Z,24.90
2019-01-30T04:07:13.811Z,24.40
2019-01-30T04:08:13.813Z,27.20
2019-01-30T04:09:13.820Z,26.90
2019-01-30T04:10:13.803Z,24.80
2019-01-30T04:11:13.873Z,28.10
2019-01-30T04:12:13.759Z,23.90
2019-01-30T04:13:13.747Z,22.70
2019-01-30T04:14:13.744Z,23.70
2019-01-30T04:15:13.731Z,21.90
2019-01-30T04:16:13.717Z,22.40
2019-01-30T04:17:13.705Z,24.40
2019-01-30T04:18:13.693Z,22.00
2019-01-30T04:19:13.689Z,26.60
2019-01-30T04:20:13.675Z,24.60
2019-01-30T04:21:13.670Z,27.30
2019-01-30T04:22:13.652Z,28.60
2019-01-30T04:23:13.643Z,24.70
2019-01-30T04:24:13.631Z,23.60
2019-01-30T04:25:13.628Z,28.90
2019-01-30T04:26:13.614Z,25.50
2019-01-30T04:27:13.610Z,24.30
2019-01-30T04:28:13.590Z,25.70
2019-01-30T04:29:13.587Z,24.10
2019-01-30T04:30:13.573Z,21.50
2019-01-30T04:31:13.568Z,25.80
2019-01-30T04:32:13.553Z,24.60
2019-01-30T04:33:13.549Z,26.30
2019-01-30T04:34:13.525Z,27.10
2019-01-30T04:35:13.517Z,25.60
2019-01-30T04:36:13.502Z,28.00
2019-01-30T04:37:13.492Z,25.60
2019-01-30T04:38:13.482Z,22.40
2019-01-30T04:39:13.486Z,25.10
2019-01-30T04:40:13.462Z,22.90
2019-01-30T04:41:13.454Z,23.40
2019-01-30T04:42:13.442Z,23.30
2019-01-30T04:43:13.429Z,23.60
2019-01-30T04:44:13.419Z,23.60
2019-01-30T04:45:13.415Z,24.30
2019-01-30T04:46:13.400Z,22.50
2019-01-30T04:47:13.394Z,24.70
2019-01-30T04:48:13.377Z,23.00
2019-01-30T04:49:13.365Z,23.40
2019-01-30T04:50:13.361Z,24.70
2019-01-30T04:51:13.346Z,24.80
2019-01-30T04:52:13.338Z,22.50
2019-01-30T04:53:13.327Z,24.00
2019-01-30T04:54:13.323Z,24.00
2019-01-30T04:55:13.311Z,22.20
2019-01-30T04:56:13.305Z,25.70
2019-01-30T04:57:13.284Z,24.40
2019-01-30T04:58:13.271Z,22.90
2019-01-30T04:59:13.263Z,24.40
2019-01-30T05:00:13.251Z,26.50
2019-01-30T05:01:13.253Z,22.90
2019-01-30T05:02:13.231Z,23.00
2019-01-30T05:03:13.253Z,22.20
2019-01-30T05:04:13.207Z,27.20
2019-01-30T05:05:13.195Z,25.00
2019-01-30T05:06:13.269Z,22.00
2019-01-30T05:07:13.180Z,25.70
2019-01-30T05:08:13.198Z,24.60
2019-01-30T05:09:13.154Z,23.50
2019-01-30T05:10:13.142Z,24.20
2019-01-30T05:11:13.134Z,20.70
2019-01-30T05:12:13.124Z,22.10
2019-01-30T05:13:13.223Z,25.80
2019-01-30T05:14:13.103Z,23.20
2019-01-30T05:15:13.091Z,23.60
2019-01-30T05:16:13.084Z,24.00
2019-01-30T05:17:13.070Z,24.10
2019-01-30T05:18:13.224Z,24.50
2019-01-30T05:19:13.065Z,24.00
2019-01-30T05:20:13.065Z,25.20
2019-01-30T05:21:13.028Z,23.00
2019-01-30T05:22:13.022Z,25.10
2019-01-30T05:23:13.009Z,25.20
2019-01-30T05:24:12.996Z,28.50
2019-01-30T05:25:12.986Z,25.50
2019-01-30T05:26:12.976Z,28.70
2019-01-30T05:27:12.972Z,25.60
2019-01-30T05:28:12.955Z,27.90
2019-01-30T05:29:12.943Z,22.40
2019-01-30T05:30:12.944Z,27.50
2019-01-30T05:31:12.921Z,26.40
2019-01-30T05:32:12.914Z,24.00
2019-01-30T05:33:12.902Z,28.30
2019-01-30T05:34:12.893Z,25.90
2019-01-30T05:35:12.883Z,25.40
2019-01-30T05:36:12.884Z,24.60
2019-01-30T05:37:12.859Z,27.70
2019-01-30T05:38:12.854Z,28.60
2019-01-30T05:39:12.839Z,27.30
2019-01-30T05:40:12.860Z,24.40
2019-01-30T05:41:12.822Z,24.40
2019-01-30T05:42:12.825Z,28.30
2019-01-30T05:43:12.795Z,25.60
2019-01-30T05:44:12.786Z,26.90
2019-01-30T05:45:12.774Z,28.10
2019-01-30T05:46:12.778Z,27.00
2019-01-30T05:47:12.759Z,27.00
2019-01-30T05:48:12.760Z,26.60
2019-01-30T05:49:12.732Z,28.00
2019-01-30T05:50:12.722Z,31.00
2019-01-30T05:51:12.714Z,27.10
2019-01-30T05:52:12.705Z,24.00
2019-01-30T05:53:12.690Z,27.50
2019-01-30T05:54:12.678Z,25.10
2019-01-30T05:55:12.672Z,29.50
2019-01-30T05:56:12.662Z,27.30
2019-01-30T05:57:12.648Z,29.30
2019-01-30T05:58:12.644Z,26.30
2019-01-30T05:59:12.639Z,28.00
2019-01-30T06:00:12.661Z,29.10
2019-01-30T06:01:12.604Z,28.10
2019-01-30T06:02:12.678Z,27.30
2019-01-30T06:03:12.591Z,27.60
2019-01-30T06:04:12.595Z,27.30
2019-01-30T06:05:12.569Z,27.70
2019-01-30T06:06:12.557Z,26.40
2019-01-30T06:07:12.540Z,27.70
2019-01-30T06:08:12.542Z,27.50
2019-01-30T06:09:12.529Z,24.80
2019-01-30T06:10:12.519Z,27.30
2019-01-30T06:11:04.229Z,25.50
2019-01-30T06:12:04.190Z,31.50
2019-01-30T06:13:04.187Z,28.10
2019-01-30T06:14:04.176Z,29.00
2019-01-30T06:15:04.158Z,30.10
2019-01-30T06:16:04.153Z,27.50
2019-01-30T06:17:04.137Z,26.70
2019-01-30T06:18:04.127Z,29.30
2019-01-30T06:19:04.120Z,26.70
2019-01-30T06:20:04.107Z,29.80
2019-01-30T06:21:04.103Z,30.30
2019-01-30T06:22:04.103Z,26.30
2019-01-30T06:23:04.076Z,30.80
2019-01-30T06:24:04.063Z,30.20
2019-01-30T06:25:04.054Z,27.80
2019-01-30T06:26:04.072Z,27.60
2019-01-30T06:27:04.035Z,27.60
2019-01-30T06:28:04.029Z,29.60
2019-01-30T06:29:04.010Z,29.90
2019-01-30T06:30:04.001Z,27.80
2019-01-30T06:31:03.991Z,28.10
2019-01-30T06:32:03.979Z,25.80
2019-01-30T06:33:03.980Z,29.00
2019-01-30T06:34:03.996Z,32.10
2019-01-30T06:35:03.954Z,29.20
2019-01-30T06:36:03.936Z,29.60
2019-01-30T06:37:03.927Z,28.70
2019-01-30T06:38:03.918Z,28.30
2019-01-30T06:39:03.910Z,27.80
2019-01-30T06:40:03.897Z,26.10
2019-01-30T06:41:03.886Z,28.20
2019-01-30T06:42:03.875Z,32.70
2019-01-30T06:43:03.865Z,27.20
2019-01-30T06:44:03.851Z,27.90
2019-01-30T06:45:03.846Z,28.10
2019-01-30T06:46:03.839Z,26.50
2019-01-30T06:47:03.820Z,26.20
2019-01-30T06:48:03.809Z,29.60
2019-01-30T06:49:03.808Z,27.90
2019-01-30T06:50:03.794Z,29.00
2019-01-30T06:51:03.790Z,34.90
2019-01-30T06:52:03.765Z,33.70
2019-01-30T06:53:03.758Z,29.80
2019-01-30T06:54:03.744Z,33.00
2019-01-30T06:55:03.757Z,31.50
2019-01-30T06:56:03.732Z,26.00
2019-01-30T06:57:03.725Z,30.80
2019-01-30T06:58:03.701Z,28.60
2019-01-30T06:59:03.695Z,27.70
2019-01-30T07:00:03.690Z,27.60
2019-01-30T07:01:03.682Z,33.30
2019-01-30T07:02:03.668Z,29.30
2019-01-30T07:03:03.671Z,25.50
2019-01-30T07:04:03.660Z,27.90
2019-01-30T07:05:03.631Z,28.40
2019-01-30T07:06:03.621Z,29.90
2019-01-30T07:07:03.625Z,27.60
2019-01-30T07:08:03.601Z,25.80
2019-01-30T07:09:03.585Z,27.80
2019-01-30T07:10:03.574Z,26.70
2019-01-30T07:11:10.432Z,24.50
2019-01-30T07:12:04.552Z,25.70
2019-01-30T07:13:03.550Z,27.70
2019-01-30T07:14:03.540Z,24.10
2019-01-30T07:15:03.525Z,23.40
2019-01-30T07:16:03.510Z,24.70
2019-01-30T07:17:03.499Z,27.60
2019-01-30T07:18:03.492Z,27.40
2019-01-30T07:19:03.481Z,23.20
2019-01-30T07:20:03.470Z,27.90
2019-01-30T07:21:03.458Z,26.80
2019-01-30T07:22:03.447Z,26.00
2019-01-30T07:23:03.438Z,27.00
2019-01-30T07:24:03.432Z,29.50
2019-01-30T07:25:03.428Z,31.00
2019-01-30T07:26:03.405Z,28.20
2019-01-30T07:27:03.393Z,26.50
2019-01-30T07:28:03.384Z,30.40
2019-01-30T07:29:03.378Z,29.80
2019-01-30T07:30:03.366Z,27.90
2019-01-30T07:31:03.355Z,32.60
2019-01-30T07:32:03.341Z,26.90
2019-01-30T07:33:03.330Z,30.00
2019-01-30T07:34:03.320Z,29.60
2019-01-30T07:35:03.327Z,30.50
2019-01-30T07:36:03.308Z,31.00
2019-01-30T07:37:03.297Z,29.30
2019-01-30T07:38:03.281Z,30.10
2019-01-30T07:39:03.267Z,29.90
2019-01-30T07:40:03.255Z,31.90
2019-01-30T07:41:03.246Z,32.50
2019-01-30T07:42:03.240Z,31.20
2019-01-30T07:43:03.224Z,31.00
2019-01-30T07:44:03.216Z,35.60
2019-01-30T07:45:03.202Z,33.40
2019-01-30T07:46:03.199Z,38.10
2019-01-30T07:47:03.185Z,35.00
2019-01-30T07:48:03.185Z,35.80
2019-01-30T07:49:03.167Z,34.40
2019-01-30T07:50:03.154Z,35.90
2019-01-30T07:51:03.166Z,36.30
2019-01-30T07:52:03.132Z,38.10
2019-01-30T07:53:03.128Z,37.90
2019-01-30T07:54:03.111Z,32.80
2019-01-30T07:55:03.098Z,36.30
2019-01-30T07:56:03.093Z,36.80
2019-01-30T07:57:03.080Z,39.40
2019-01-30T07:58:05.725Z,41.60
2019-01-30T07:59:03.063Z,36.90
2019-01-30T08:00:03.059Z,40.20
2019-01-30T08:01:03.055Z,40.40
2019-01-30T08:02:03.033Z,42.30
2019-01-30T08:03:03.016Z,42.00
2019-01-30T08:04:03.008Z,43.20
2019-01-30T08:05:02.991Z,41.20
2019-01-30T08:06:03.012Z,43.70
2019-01-30T08:07:03.209Z,39.10
2019-01-30T08:08:02.957Z,42.60
2019-01-30T08:09:02.949Z,42.60
2019-01-30T08:10:02.939Z,44.00
2019-01-30T08:11:02.934Z,42.60
2019-01-30T08:12:02.917Z,43.00
2019-01-30T08:13:03.007Z,41.70
2019-01-30T08:14:02.919Z,39.20
2019-01-30T08:15:02.890Z,39.40
2019-01-30T08:16:02.884Z,41.20
2019-01-30T08:17:02.871Z,43.20
2019-01-30T08:18:02.855Z,41.50
2019-01-30T08:19:02.941Z,42.80
2019-01-30T08:20:02.839Z,46.50
2019-01-30T08:21:02.829Z,44.30
2019-01-30T08:22:02.816Z,41.30
2019-01-30T08:23:03.254Z,43.60
2019-01-30T08:24:02.988Z,46.10
2019-01-30T08:25:03.179Z,39.20
2019-01-30T08:26:03.101Z,41.50
2019-01-30T08:27:02.759Z,40.60
2019-01-30T08:28:02.842Z,43.40
2019-01-30T08:29:02.873Z,40.80
2019-01-30T08:30:03.186Z,45.90
2019-01-30T08:31:03.091Z,42.90
2019-01-30T08:32:02.705Z,44.40
2019-01-30T08:33:05.596Z,39.60
2019-01-30T08:34:02.685Z,41.90
2019-01-30T08:35:02.673Z,40.80
2019-01-30T08:36:02.663Z,43.60
2019-01-30T08:37:02.655Z,40.70
2019-01-30T08:38:02.667Z,44.50
2019-01-30T08:39:02.636Z,41.20
2019-01-30T08:40:02.623Z,40.70
2019-01-30T08:41:02.612Z,41.70
2019-01-30T08:42:03.668Z,40.60
2019-01-30T08:43:02.595Z,39.40
2019-01-30T08:44:02.585Z,37.30
2019-01-30T08:45:02.569Z,40.60
2019-01-30T08:46:02.859Z,40.10
2019-01-30T08:47:02.548Z,40.40
2019-01-30T08:48:02.968Z,43.40
2019-01-30T08:49:02.532Z,40.00
2019-01-30T08:50:02.598Z,39.70
2019-01-30T08:51:02.508Z,44.00
2019-01-30T08:52:02.495Z,42.10
2019-01-30T08:53:02.496Z,39.10
2019-01-30T08:54:02.473Z,40.00
2019-01-30T08:55:02.469Z,42.30
2019-01-30T08:56:02.451Z,40.30
2019-01-30T08:57:02.446Z,37.50
2019-01-30T08:58:02.434Z,41.30
2019-01-30T08:59:02.427Z,39.90
2019-01-30T09:00:02.410Z,41.20
2019-01-30T09:01:02.408Z,38.40
2019-01-30T09:02:02.485Z,39.10
2019-01-30T09:03:02.468Z,36.90
2019-01-30T09:04:02.365Z,40.80
2019-01-30T09:05:02.359Z,41.80
2019-01-30T09:06:02.348Z,42.90
2019-01-30T09:07:02.343Z,42.40
2019-01-30T09:08:02.339Z,41.90
2019-01-30T09:09:02.332Z,40.60
2019-01-30T09:10:02.302Z,42.30
2019-01-30T09:11:02.297Z,43.10
2019-01-30T09:12:02.284Z,38.50
2019-01-30T09:13:02.277Z,40.50
2019-01-30T09:14:02.270Z,39.40
2019-01-30T09:15:02.257Z,39.40
2019-01-30T09:16:02.239Z,38.90
2019-01-30T09:17:02.246Z,38.40
2019-01-30T09:18:02.220Z,38.80
2019-01-30T09:19:02.209Z,39.60
2019-01-30T09:20:02.196Z,40.00
2019-01-30T09:21:02.190Z,35.90
2019-01-30T09:22:02.176Z,37.40
2019-01-30T09:23:02.175Z,36.90
2019-01-30T09:24:02.153Z,40.10
2019-01-30T09:25:02.155Z,37.50
2019-01-30T09:26:02.145Z,37.50
2019-01-30T09:27:02.131Z,34.60
2019-01-30T09:28:02.116Z,38.60
2019-01-30T09:29:02.110Z,38.50
2019-01-30T09:30:02.099Z,33.80
2019-01-30T09:31:02.081Z,38.90
2019-01-30T09:32:02.077Z,39.60
2019-01-30T09:33:02.060Z,37.70
2019-01-30T09:34:02.057Z,35.50
2019-01-30T09:35:02.061Z,37.60
2019-01-30T09:36:02.100Z,38.00
2019-01-30T09:37:02.029Z,37.50
2019-01-30T09:38:02.023Z,34.40
2019-01-30T09:39:02.013Z,35.90
2019-01-30T09:40:01.989Z,36.20
2019-01-30T09:41:01.987Z,35.80
2019-01-30T09:42:01.966Z,35.20
2019-01-30T09:43:01.954Z,35.70
2019-01-30T09:44:01.980Z,34.80
2019-01-30T09:45:01.941Z,35.20
2019-01-30T09:46:01.930Z,45.90
2019-01-30T09:47:01.911Z,62.80
2019-01-30T09:48:01.900Z,59.40
2019-01-30T09:49:01.911Z,52.80
2019-01-30T09:50:01.906Z,55.40
2019-01-30T09:51:01.875Z,48.40
2019-01-30T09:52:01.859Z,40.10
2019-01-30T09:53:01.864Z,34.60
2019-01-30T09:54:01.840Z,32.40
2019-01-30T09:55:01.838Z,32.60
2019-01-30T09:56:01.817Z,30.50
2019-01-30T09:57:01.805Z,32.00
2019-01-30T09:58:01.799Z,31.90
2019-01-30T09:59:01.786Z,29.20
2019-01-30T10:00:01.792Z,30.50
2019-01-30T10:01:01.786Z,28.90
2019-01-30T10:02:01.753Z,30.40
2019-01-30T10:03:01.742Z,29.40
2019-01-30T10:04:01.738Z,29.40
2019-01-30T10:05:01.724Z,29.30
2019-01-30T10:06:01.712Z,32.40
2019-01-30T10:07:01.699Z,28.50
2019-01-30T10:08:01.690Z,29.40
2019-01-30T10:09:01.682Z,30.30
2019-01-30T10:10:01.674Z,28.10
2019-01-30T10:11:01.693Z,28.70
2019-01-30T10:12:01.659Z,27.40
2019-01-30T10:13:01.637Z,34.60
2019-01-30T10:14:01.630Z,29.80
2019-01-30T10:15:01.615Z,27.50
2019-01-30T10:16:01.610Z,26.10
2019-01-30T10:17:01.595Z,26.90
2019-01-30T10:18:01.597Z,28.00
2019-01-30T10:19:01.573Z,24.80
2019-01-30T10:20:01.567Z,25.10
2019-01-30T10:21:01.558Z,24.60
2019-01-30T10:22:01.548Z,30.30
2019-01-30T10:23:01.541Z,23.60
2019-01-30T10:24:01.541Z,23.90
2019-01-30T10:25:01.523Z,23.60
2019-01-30T10:26:01.502Z,25.90
2019-01-30T10:27:01.488Z,25.40
2019-01-30T10:28:01.545Z,29.10
2019-01-30T10:29:01.479Z,24.40
2019-01-30T10:30:01.485Z,26.20
2019-01-30T10:31:01.446Z,28.90
2019-01-30T10:32:01.440Z,31.50
2019-01-30T10:33:01.426Z,25.70
2019-01-30T10:34:01.418Z,24.40
2019-01-30T10:35:01.406Z,23.80
2019-01-30T10:36:01.396Z,22.70
2019-01-30T10:37:03.674Z,24.30
2019-01-30T10:38:01.379Z,24.00
2019-01-30T10:39:01.375Z,23.20
2019-01-30T10:40:01.357Z,22.90
2019-01-30T10:41:01.352Z,20.70
2019-01-30T10:42:01.327Z,21.20
2019-01-30T10:43:01.320Z,19.90
2019-01-30T10:44:01.306Z,22.80
2019-01-30T10:45:01.304Z,21.70
2019-01-30T10:46:01.297Z,24.10
2019-01-30T10:47:01.283Z,21.70
2019-01-30T10:48:01.263Z,21.60
2019-01-30T10:49:01.256Z,19.80
2019-01-30T10:50:01.245Z,19.90
2019-01-30T10:51:01.237Z,21.80
2019-01-30T10:52:01.221Z,21.00
2019-01-30T10:53:01.213Z,20.40
2019-01-30T10:54:01.199Z,20.00
2019-01-30T10:55:01.308Z,20.50
2019-01-30T10:56:01.182Z,18.30
2019-01-30T10:57:01.167Z,20.20
2019-01-30T10:58:01.161Z,19.20
2019-01-30T10:59:01.150Z,18.30
2019-01-30T11:00:01.136Z,18.80
2019-01-30T11:01:01.122Z,18.80
2019-01-30T11:02:01.119Z,18.60
2019-01-30T11:03:01.106Z,18.70
2019-01-30T11:04:01.098Z,20.20
2019-01-30T11:05:01.084Z,17.70
2019-01-30T11:06:01.070Z,18.80
2019-01-30T11:07:01.062Z,17.60
2019-01-30T11:08:01.048Z,17.20
2019-01-30T11:09:01.051Z,18.80
2019-01-30T11:10:01.027Z,18.30
2019-01-30T11:11:07.579Z,15.30
2019-01-30T11:12:02.018Z,17.80
2019-01-30T11:13:01.004Z,17.50
2019-01-30T11:14:00.987Z,16.60
2019-01-30T11:15:02.912Z,17.10
2019-01-30T11:16:01.345Z,18.40
2019-01-30T11:17:00.958Z,19.10
2019-01-30T11:18:00.942Z,17.70
2019-01-30T11:19:00.945Z,16.80
2019-01-30T11:20:00.927Z,16.80
2019-01-30T11:21:00.923Z,16.00
2019-01-30T11:22:00.898Z,18.20
2019-01-30T11:23:00.901Z,17.70
2019-01-30T11:24:00.878Z,19.60
2019-01-30T11:25:00.866Z,16.90
2019-01-30T11:26:00.871Z,17.70
2019-01-30T11:27:00.863Z,21.70
2019-01-30T11:28:00.836Z,17.60
2019-01-30T11:29:00.825Z,17.50
2019-01-30T11:30:00.814Z,24.00
2019-01-30T11:31:00.803Z,21.30
2019-01-30T11:32:00.799Z,21.60
2019-01-30T11:33:00.802Z,23.90
2019-01-30T11:34:07.284Z,22.00
2019-01-30T11:35:01.771Z,21.40
2019-01-30T11:36:00.755Z,23.60
2019-01-30T11:37:00.740Z,21.30
2019-01-30T11:38:00.738Z,22.30
2019-01-30T11:39:00.717Z,21.30
2019-01-30T11:40:00.707Z,20.20
2019-01-30T11:41:00.700Z,22.50
2019-01-30T11:42:00.689Z,21.50
2019-01-30T11:43:00.675Z,25.20
2019-01-30T11:44:00.677Z,21.00
2019-01-30T11:45:00.695Z,21.60
2019-01-30T11:46:00.648Z,22.00
2019-01-30T11:47:00.635Z,22.70
2019-01-30T11:48:00.619Z,24.00
2019-01-30T11:49:00.608Z,23.20
2019-01-30T11:50:00.601Z,20.60
2019-01-30T11:51:00.586Z,21.20
2019-01-30T11:52:00.580Z,22.30
2019-01-30T11:53:00.563Z,21.40
2019-01-30T11:54:00.556Z,22.10
2019-01-30T11:55:00.569Z,20.10
2019-01-30T11:56:00.538Z,19.60
2019-01-30T11:57:00.524Z,17.70
2019-01-30T11:58:00.524Z,18.40
2019-01-30T11:59:00.505Z,21.10
2019-01-30T12:00:00.505Z,20.80
2019-01-30T12:01:03.286Z,19.80
2019-01-30T12:02:00.481Z,19.90
2019-01-30T12:03:00.466Z,17.10
2019-01-30T12:04:00.468Z,19.10
2019-01-30T12:05:00.445Z,21.10
2019-01-30T12:06:00.431Z,19.00
2019-01-30T12:07:00.426Z,18.60
2019-01-30T12:08:00.495Z,18.80
2019-01-30T12:09:00.399Z,19.80
2019-01-30T12:10:00.394Z,20.50
2019-01-30T12:11:00.377Z,21.00
2019-01-30T12:12:00.375Z,23.30
2019-01-30T12:13:00.373Z,21.20
2019-01-30T12:14:00.351Z,19.60
2019-01-30T12:15:00.353Z,21.40
2019-01-30T12:16:00.318Z,19.20
2019-01-30T12:17:00.312Z,21.30
2019-01-30T12:18:00.302Z,19.60
2019-01-30T12:19:00.316Z,20.40
2019-01-30T12:20:00.346Z,23.90
2019-01-30T12:21:00.264Z,23.70
2019-01-30T12:22:00.256Z,19.50
2019-01-30T12:23:00.247Z,23.10
2019-01-30T12:24:00.239Z,20.10
2019-01-30T12:25:00.222Z,22.00
2019-01-30T12:26:00.212Z,21.20
2019-01-30T12:27:00.201Z,21.70
2019-01-30T12:28:00.189Z,20.70
2019-01-30T12:29:00.179Z,19.00
2019-01-30T12:30:00.190Z,17.90
2019-01-30T12:31:00.158Z,19.30
2019-01-30T12:32:00.146Z,22.60
2019-01-30T12:33:00.137Z,20.10
2019-01-30T12:34:00.127Z,22.30
2019-01-30T12:35:00.195Z,22.00
2019-01-30T12:36:00.105Z,23.00
2019-01-30T12:37:00.100Z,21.70
2019-01-30T12:38:00.085Z,21.10
2019-01-30T12:39:00.084Z,20.90
2019-01-30T12:40:00.107Z,23.30
2019-01-30T12:41:00.066Z,23.50
2019-01-30T12:42:00.040Z,24.10
2019-01-30T12:43:00.036Z,20.70
2019-01-30T12:44:00.018Z,20.10
2019-01-30T12:45:00.026Z,21.60
2019-01-30T12:46:00.004Z,23.70
2019-01-30T12:46:59.999Z,23.00
2019-01-30T12:47:59.974Z,21.80
2019-01-30T12:48:59.969Z,22.50
2019-01-30T12:49:59.955Z,20.90
2019-01-30T12:50:59.943Z,24.60
2019-01-30T12:51:59.939Z,25.70